EST,Max TemperatureF,Mean TemperatureF,Min TemperatureF,Max Dew PointF,MeanDew PointF,Min DewpointF,Max Humidity, Mean Humidity, Min Humidity, Max Sea Level PressureIn, Mean Sea Level PressureIn, Min Sea Level PressureIn, Max VisibilityMiles, Mean VisibilityMiles, Min VisibilityMiles, Max Wind SpeedMPH, Mean Wind SpeedMPH, Max Gust SpeedMPH,PrecipitationIn, CloudCover, Events, WindDirDegrees
2012-11-1,43,40,37,41,37,35,96,91,85,29.61,29.52,29.46,10,10,6,14,9,18,0.14,8,Rain,246
2012-11-2,39,36,32,37,33,30,100,88,76,29.80,29.65,29.58,10,8,2,16,9,23,0.03,8,Rain-Snow,291
2012-11-3,38,35,32,34,30,28,96,89,82,30.01,29.91,29.77,10,7,1,20,9,30,0.06,8,Snow,309
2012-11-4,35,33,30,31,28,24,92,84,75,30.06,30.01,29.96,10,7,2,15,9,21,0.02,8,Snow,314
2012-11-5,34,32,30,27,23,18,78,69,59,30.17,30.08,30.01,10,10,9,15,7,18,T,8,Snow,345
2012-11-6,38,32,25,20,18,16,68,56,44,30.21,30.15,30.08,10,10,10,10,4,15,0.00,4,,93
2012-11-7,35,29,23,20,17,15,74,61,47,30.11,30.03,29.96,10,10,10,14,8,17,0.01,0,,22
2012-11-8,40,33,26,23,21,18,75,58,40,30.05,29.98,29.93,10,10,10,28,13,35,0.00,1,,332
2012-11-9,42,35,28,34,29,21,85,74,62,30.21,30.13,30.03,10,10,7,17,7,24,0.00,5,,305
2012-11-10,47,42,37,38,35,33,92,81,70,30.34,30.27,30.17,10,8,4,10,4,14,0.01,8,Rain,186
2012-11-11,68,56,43,39,36,33,70,52,34,30.40,30.36,30.31,10,10,10,13,7,18,0.00,4,,169
2012-11-12,64,54,44,52,45,37,72,63,54,30.34,30.19,30.04,10,9,1,25,12,37,0.30,4,Rain,196
2012-11-13,44,38,31,40,30,21,100,82,63,30.50,30.31,30.17,10,7,0,17,7,25,0.54,8,Fog-Rain-Snow,305
2012-11-14,40,34,28,24,21,19,78,63,48,30.58,30.52,30.46,10,10,10,13,6,17,0.00,2,,19
2012-11-15,40,32,24,24,21,19,81,67,52,30.46,30.39,30.32,10,10,10,8,2,10,0.00,0,,79
2012-11-16,43,34,25,27,23,20,81,63,45,30.51,30.39,30.32,10,10,10,14,7,18,0.00,0,,350
2012-11-17,46,36,26,29,27,24,92,73,53,30.66,30.60,30.50,10,9,4,10,4,13,0.00,0,,41
2012-11-18,46,36,25,29,26,23,92,71,49,30.66,30.61,30.55,10,9,3,9,5,13,0.00,0,,122
2012-11-19,49,39,29,31,25,23,85,63,41,30.54,30.41,30.24,10,10,10,7,2,10,0.00,0,,146
2012-11-20,49,39,28,29,25,22,72,61,49,30.22,30.17,30.13,10,10,10,6,1,7,0.00,0,,251
2012-11-21,52,42,31,30,26,19,82,57,31,30.24,30.20,30.13,10,10,10,8,2,10,0.00,0,,5
2012-11-22,54,42,29,28,24,19,85,59,32,30.26,30.19,30.06,10,10,10,8,4,10,0.00,0,,178
2012-11-23,53,44,35,37,30,19,85,63,41,30.04,29.81,29.68,10,10,8,22,9,30,0.03,5,Rain,210
2012-11-24,36,31,26,23,20,16,81,64,47,29.86,29.76,29.69,10,8,0,26,13,40,T,7,Snow,293
2012-11-25,30,29,27,25,20,13,85,70,55,29.89,29.84,29.77,10,7,1,22,10,31,0.04,8,Snow,261
2012-11-26,38,33,28,23,21,19,72,62,52,30.22,30.07,29.87,10,10,10,17,8,22,T,7,,261
2012-11-27,32,30,28,28,25,20,92,76,59,30.27,30.22,30.17,10,6,1,8,3,10,0.07,8,Snow,320
2012-11-28,32,28,24,27,23,18,88,74,59,30.24,30.19,30.11,10,7,1,15,6,18,0.03,7,Snow,262
2012-11-29,41,34,26,24,20,17,81,63,45,30.30,30.25,30.21,10,10,4,18,10,23,0.00,2,,254
2012-11-30,32,30,28,29,26,18,92,73,54,30.39,30.33,30.27,10,5,0,12,6,14,0.07,7,Snow,97